createdAt,value
2018-12-02T00:00:50.785Z,2.40
2018-12-02T00:01:50.755Z,2.60
2018-12-02T00:02:50.738Z,2.60
2018-12-02T00:03:50.708Z,2.90
2018-12-02T00:04:50.687Z,2.60
2018-12-02T00:05:50.709Z,2.40
2018-12-02T00:06:50.641Z,2.60
2018-12-02T00:07:50.619Z,2.70
2018-12-02T00:08:50.589Z,2.50
2018-12-02T00:09:50.575Z,2.60
2018-12-02T00:10:50.546Z,2.30
2018-12-02T00:11:50.524Z,2.80
2018-12-02T00:12:50.499Z,2.80
2018-12-02T00:13:50.479Z,2.60
2018-12-02T00:14:50.466Z,2.70
2018-12-02T00:15:50.449Z,2.40
2018-12-02T00:16:50.414Z,2.50
2018-12-02T00:17:50.389Z,2.70
2018-12-02T00:18:50.368Z,2.40
2018-12-02T00:19:50.348Z,2.40
2018-12-02T00:20:50.321Z,2.50
2018-12-02T00:21:50.313Z,2.40
2018-12-02T00:22:50.643Z,2.30
2018-12-02T00:23:50.253Z,2.30
2018-12-02T00:24:50.237Z,2.30
2018-12-02T00:25:50.209Z,2.30
2018-12-02T00:26:50.186Z,2.50
2018-12-02T00:27:50.166Z,2.30
2018-12-02T00:28:50.146Z,2.30
2018-12-02T00:29:50.129Z,2.30
2018-12-02T00:30:50.123Z,2.20
2018-12-02T00:31:50.074Z,2.50
2018-12-02T00:32:50.067Z,2.30
2018-12-02T00:33:50.045Z,2.60
2018-12-02T00:34:50.012Z,2.20
2018-12-02T00:35:49.994Z,2.40
2018-12-02T00:36:49.963Z,2.40
2018-12-02T00:37:49.941Z,2.40
2018-12-02T00:38:49.930Z,2.60
2018-12-02T00:39:49.905Z,2.20
2018-12-02T00:40:49.874Z,2.40
2018-12-02T00:41:49.853Z,2.20
2018-12-02T00:42:49.835Z,2.40
2018-12-02T00:43:49.818Z,2.10
2018-12-02T00:44:49.785Z,2.10
2018-12-02T00:45:49.763Z,2.30
2018-12-02T00:46:49.749Z,2.40
2018-12-02T00:47:49.731Z,2.00
2018-12-02T00:48:49.700Z,2.20
2018-12-02T00:49:49.676Z,2.20
2018-12-02T00:50:49.653Z,1.90
2018-12-02T00:51:49.630Z,2.10
2018-12-02T00:52:49.607Z,2.20
2018-12-02T00:53:49.585Z,2.20
2018-12-02T00:54:49.567Z,2.20
2018-12-02T00:55:49.539Z,2.20
2018-12-02T00:56:49.518Z,2.30
2018-12-02T00:57:49.494Z,2.10
2018-12-02T00:58:49.473Z,2.20
2018-12-02T00:59:49.449Z,1.90
2018-12-02T01:00:49.441Z,2.00
2018-12-02T01:01:49.411Z,2.30
2018-12-02T01:02:49.392Z,1.90
2018-12-02T01:03:49.414Z,2.00
2018-12-02T01:04:49.338Z,2.00
2018-12-02T01:05:49.316Z,2.20
2018-12-02T01:06:53.510Z,2.30
2018-12-02T01:07:49.289Z,2.10
2018-12-02T01:08:49.249Z,2.10
2018-12-02T01:09:49.228Z,2.20
2018-12-02T01:10:49.206Z,2.10
2018-12-02T01:11:49.182Z,2.10
2018-12-02T01:12:49.161Z,2.00
2018-12-02T01:13:49.138Z,2.30
2018-12-02T01:14:49.123Z,2.20
2018-12-02T01:15:49.093Z,2.00
2018-12-02T01:16:49.075Z,2.10
2018-12-02T01:17:49.057Z,2.30
2018-12-02T01:18:49.028Z,1.90
2018-12-02T01:19:49.013Z,1.90
2018-12-02T01:20:48.981Z,1.90
2018-12-02T01:21:48.976Z,1.90
2018-12-02T01:22:48.939Z,1.80
2018-12-02T01:23:48.924Z,1.90
2018-12-02T01:24:48.893Z,2.20
2018-12-02T01:25:48.872Z,1.90
2018-12-02T01:26:48.994Z,2.00
2018-12-02T01:27:48.826Z,1.80
2018-12-02T01:28:48.807Z,2.20
2018-12-02T01:29:48.786Z,2.00
2018-12-02T01:30:48.769Z,1.80
2018-12-02T01:31:48.738Z,1.90
2018-12-02T01:32:48.736Z,1.90
2018-12-02T01:33:48.693Z,2.10
2018-12-02T01:34:48.679Z,2.10
2018-12-02T01:35:48.654Z,2.00
2018-12-02T01:36:48.636Z,2.30
2018-12-02T01:37:48.605Z,2.10
2018-12-02T01:38:48.599Z,2.00
2018-12-02T01:39:48.560Z,2.00
2018-12-02T01:40:48.539Z,1.90
2018-12-02T01:41:48.525Z,1.90
2018-12-02T01:42:48.500Z,1.90
2018-12-02T01:43:48.472Z,1.80
2018-12-02T01:44:48.451Z,1.80
2018-12-02T01:45:48.428Z,1.90
2018-12-02T01:46:48.407Z,2.20
2018-12-02T01:47:48.390Z,1.70
2018-12-02T01:48:48.364Z,2.00
2018-12-02T01:49:48.348Z,1.90
2018-12-02T01:50:48.327Z,2.20
2018-12-02T01:51:48.294Z,2.00
2018-12-02T01:52:48.281Z,2.00
2018-12-02T01:53:48.250Z,1.90
2018-12-02T01:54:48.229Z,1.90
2018-12-02T01:55:48.208Z,2.00
2018-12-02T01:56:48.188Z,1.90
2018-12-02T01:57:48.162Z,2.10
2018-12-02T01:58:48.143Z,1.80
2018-12-02T01:59:48.120Z,1.90
2018-12-02T02:00:48.095Z,1.80
2018-12-02T02:01:48.074Z,1.80
2018-12-02T02:02:48.055Z,1.70
2018-12-02T02:03:48.030Z,1.90
2018-12-02T02:04:48.008Z,1.80
2018-12-02T02:05:48.004Z,2.20
2018-12-02T02:06:47.965Z,2.30
2018-12-02T02:07:47.947Z,1.80
2018-12-02T02:08:47.921Z,1.90
2018-12-02T02:09:47.903Z,1.70
2018-12-02T02:10:47.877Z,1.70
2018-12-02T02:11:47.856Z,2.00
2018-12-02T02:12:47.832Z,1.90
2018-12-02T02:13:47.812Z,2.00
2018-12-02T02:14:47.792Z,1.80
2018-12-02T02:15:47.767Z,2.10
2018-12-02T02:16:47.745Z,1.80
2018-12-02T02:17:47.722Z,1.60
2018-12-02T02:18:47.703Z,1.90
2018-12-02T02:19:47.683Z,1.60
2018-12-02T02:20:47.658Z,1.50
2018-12-02T02:21:47.641Z,1.70
2018-12-02T02:22:47.614Z,1.70
2018-12-02T02:23:47.591Z,1.90
2018-12-02T02:24:47.569Z,1.70
2018-12-02T02:25:47.555Z,1.60
2018-12-02T02:26:47.535Z,1.60
2018-12-02T02:27:47.512Z,1.60
2018-12-02T02:28:47.482Z,2.00
2018-12-02T02:29:47.462Z,1.60
2018-12-02T02:30:47.437Z,1.90
2018-12-02T02:31:47.469Z,1.60
2018-12-02T02:32:47.395Z,1.60
2018-12-02T02:33:47.382Z,1.80
2018-12-02T02:34:47.356Z,1.70
2018-12-02T02:35:47.329Z,1.80
2018-12-02T02:36:47.312Z,1.70
2018-12-02T02:37:47.283Z,1.90
2018-12-02T02:38:47.263Z,1.60
2018-12-02T02:39:47.240Z,1.80
2018-12-02T02:40:47.220Z,1.80
2018-12-02T02:41:47.196Z,1.70
2018-12-02T02:42:47.177Z,1.60
2018-12-02T02:43:47.153Z,1.60
2018-12-02T02:44:47.130Z,1.60
2018-12-02T02:45:47.111Z,1.60
2018-12-02T02:46:47.087Z,1.70
2018-12-02T02:47:47.066Z,1.60
2018-12-02T02:48:47.051Z,1.50
2018-12-02T02:49:47.022Z,1.70
2018-12-02T02:50:47.001Z,1.80
2018-12-02T02:51:46.987Z,1.70
2018-12-02T02:52:46.957Z,1.70
2018-12-02T02:53:46.936Z,1.70
2018-12-02T02:54:46.918Z,1.80
2018-12-02T02:55:46.893Z,1.70
2018-12-02T02:56:46.868Z,1.90
2018-12-02T02:57:46.847Z,1.70
2018-12-02T02:58:46.825Z,1.70
2018-12-02T02:59:46.801Z,1.90
2018-12-02T03:00:46.782Z,1.80
2018-12-02T03:01:46.758Z,1.70
2018-12-02T03:02:46.738Z,1.60
2018-12-02T03:03:46.714Z,1.70
2018-12-02T03:04:46.708Z,1.80
2018-12-02T03:05:46.674Z,1.90
2018-12-02T03:06:46.649Z,1.60
2018-12-02T03:07:46.653Z,1.70
2018-12-02T03:08:46.605Z,2.00
2018-12-02T03:09:46.592Z,1.70
2018-12-02T03:10:46.564Z,1.60
2018-12-02T03:11:46.545Z,1.60
2018-12-02T03:12:46.521Z,1.60
2018-12-02T03:13:46.498Z,1.80
2018-12-02T03:14:46.481Z,1.70
2018-12-02T03:15:46.452Z,1.80
2018-12-02T03:16:46.439Z,2.00
2018-12-02T03:17:46.409Z,1.80
2018-12-02T03:18:46.390Z,1.70
2018-12-02T03:19:46.369Z,1.70
2018-12-02T03:20:46.345Z,1.90
2018-12-02T03:21:46.322Z,1.90
2018-12-02T03:22:46.301Z,1.70
2018-12-02T03:23:46.277Z,1.70
2018-12-02T03:24:46.258Z,1.90
2018-12-02T03:25:46.235Z,1.80
2018-12-02T03:26:46.213Z,1.80
2018-12-02T03:27:46.191Z,2.00
2018-12-02T03:28:46.168Z,1.70
2018-12-02T03:29:46.146Z,1.60
2018-12-02T03:30:46.126Z,1.50
2018-12-02T03:31:46.105Z,1.70
2018-12-02T03:32:46.087Z,1.80
2018-12-02T03:33:46.065Z,1.70
2018-12-02T03:34:46.045Z,1.70
2018-12-02T03:35:46.015Z,1.60
2018-12-02T03:36:45.994Z,1.60
2018-12-02T03:37:46.054Z,1.60
2018-12-02T03:38:45.950Z,1.50
2018-12-02T03:39:45.926Z,1.70
2018-12-02T03:40:45.905Z,1.40
2018-12-02T03:41:45.887Z,1.50
2018-12-02T03:42:45.864Z,1.60
2018-12-02T03:43:45.850Z,1.70
2018-12-02T03:44:45.817Z,1.60
2018-12-02T03:45:45.803Z,1.50
2018-12-02T03:46:45.777Z,1.70
2018-12-02T03:47:45.754Z,1.50
2018-12-02T03:48:45.731Z,1.50
2018-12-02T03:49:45.710Z,1.50
2018-12-02T03:50:45.689Z,1.50
2018-12-02T03:51:45.668Z,1.70
2018-12-02T03:52:45.646Z,1.80
2018-12-02T03:53:45.624Z,1.40
2018-12-02T03:54:45.601Z,1.60
2018-12-02T03:55:45.587Z,1.30
2018-12-02T03:56:45.559Z,1.30
2018-12-02T03:57:45.540Z,1.50
2018-12-02T03:58:45.515Z,1.40
2018-12-02T03:59:45.493Z,1.60
2018-12-02T04:00:45.477Z,1.60
2018-12-02T04:01:45.447Z,1.70
2018-12-02T04:02:45.427Z,1.60
2018-12-02T04:03:45.426Z,1.50
2018-12-02T04:04:45.384Z,1.40
2018-12-02T04:05:45.370Z,1.70
2018-12-02T04:06:45.339Z,1.60
2018-12-02T04:07:45.317Z,1.50
2018-12-02T04:08:45.303Z,1.50
2018-12-02T04:09:45.275Z,1.60
2018-12-02T04:10:45.252Z,1.40
2018-12-02T04:11:45.230Z,1.40
2018-12-02T04:12:45.210Z,1.70
2018-12-02T04:13:45.186Z,1.50
2018-12-02T04:14:45.163Z,1.50
2018-12-02T04:15:45.152Z,1.60
2018-12-02T04:16:45.121Z,1.40
2018-12-02T04:17:45.109Z,1.50
2018-12-02T04:18:45.078Z,1.80
2018-12-02T04:19:45.051Z,1.50
2018-12-02T04:20:45.032Z,1.40
2018-12-02T04:21:45.018Z,1.90
2018-12-02T04:22:44.989Z,1.80
2018-12-02T04:23:44.965Z,1.50
2018-12-02T04:24:44.943Z,1.70
2018-12-02T04:25:44.922Z,1.60
2018-12-02T04:26:44.899Z,1.80
2018-12-02T04:27:44.881Z,1.50
2018-12-02T04:28:44.855Z,1.50
2018-12-02T04:29:44.837Z,1.50
2018-12-02T04:30:44.813Z,1.60
2018-12-02T04:31:44.789Z,1.60
2018-12-02T04:32:44.771Z,1.70
2018-12-02T04:33:44.745Z,1.50
2018-12-02T04:34:44.722Z,1.40
2018-12-02T04:35:44.700Z,1.60
2018-12-02T04:36:44.677Z,2.00
2018-12-02T04:37:44.656Z,1.50
2018-12-02T04:38:44.635Z,1.60
2018-12-02T04:39:44.610Z,1.80
2018-12-02T04:40:44.589Z,1.70
2018-12-02T04:41:44.566Z,1.60
2018-12-02T04:42:44.549Z,1.90
2018-12-02T04:43:44.522Z,1.60
2018-12-02T04:44:44.531Z,1.60
2018-12-02T04:45:44.478Z,1.60
2018-12-02T04:46:44.456Z,1.60
2018-12-02T04:47:44.437Z,1.60
2018-12-02T04:48:44.411Z,1.50
2018-12-02T04:49:44.388Z,1.80
2018-12-02T04:50:44.368Z,1.70
2018-12-02T04:51:44.395Z,1.60
2018-12-02T04:52:44.329Z,1.80
2018-12-02T04:53:44.299Z,1.60
2018-12-02T04:54:44.284Z,1.50
2018-12-02T04:55:44.262Z,1.60
2018-12-02T04:56:44.237Z,1.60
2018-12-02T04:57:44.211Z,1.60
2018-12-02T04:58:44.190Z,1.60
2018-12-02T04:59:44.166Z,1.50
2018-12-02T05:00:44.146Z,1.70
2018-12-02T05:01:44.122Z,1.50
2018-12-02T05:02:44.099Z,1.60
2018-12-02T05:03:44.077Z,1.50
2018-12-02T05:04:44.055Z,1.60
2018-12-02T05:05:44.033Z,1.80
2018-12-02T05:06:44.012Z,1.70
2018-12-02T05:07:43.989Z,1.80
2018-12-02T05:08:43.966Z,1.90
2018-12-02T05:09:43.943Z,1.70
2018-12-02T05:10:43.921Z,1.60
2018-12-02T05:11:43.899Z,1.80
2018-12-02T05:12:43.880Z,2.00
2018-12-02T05:13:43.855Z,1.80
2018-12-02T05:14:43.831Z,2.10
2018-12-02T05:15:43.808Z,2.00
2018-12-02T05:16:43.786Z,2.10
2018-12-02T05:17:43.772Z,2.20
2018-12-02T05:18:43.742Z,2.30
2018-12-02T05:19:43.719Z,2.20
2018-12-02T05:20:43.697Z,2.20
2018-12-02T05:21:43.674Z,2.10
2018-12-02T05:22:43.653Z,2.10
2018-12-02T05:23:43.630Z,1.90
2018-12-02T05:24:43.609Z,2.00
2018-12-02T05:25:43.587Z,2.00
2018-12-02T05:26:43.563Z,1.90
2018-12-02T05:27:43.540Z,2.00
2018-12-02T05:28:43.517Z,1.80
2018-12-02T05:29:43.495Z,1.80
2018-12-02T05:30:43.473Z,1.70
2018-12-02T05:31:43.450Z,1.70
2018-12-02T05:32:43.429Z,1.50
2018-12-02T05:33:43.414Z,1.80
2018-12-02T05:34:43.383Z,1.90
2018-12-02T05:35:43.369Z,1.70
2018-12-02T05:36:43.339Z,1.90
2018-12-02T05:37:43.315Z,1.80
2018-12-02T05:38:43.304Z,1.50
2018-12-02T05:39:43.270Z,1.50
2018-12-02T05:40:43.255Z,1.60
2018-12-02T05:41:43.226Z,1.50
2018-12-02T05:42:43.208Z,1.50
2018-12-02T05:43:43.182Z,1.70
2018-12-02T05:44:43.167Z,1.50
2018-12-02T05:45:43.137Z,1.70
2018-12-02T05:46:43.118Z,1.50
2018-12-02T05:47:43.104Z,1.60
2018-12-02T05:48:43.070Z,1.60
2018-12-02T05:49:43.197Z,1.50
2018-12-02T05:50:43.026Z,1.50
2018-12-02T05:51:43.002Z,1.60
2018-12-02T05:52:42.980Z,1.60
2018-12-02T05:53:42.957Z,1.60
2018-12-02T05:54:42.938Z,1.50
2018-12-02T05:55:42.913Z,1.60
2018-12-02T05:56:42.890Z,1.50
2018-12-02T05:57:42.868Z,1.40
2018-12-02T05:58:42.846Z,1.50
2018-12-02T05:59:42.824Z,1.50
2018-12-02T06:00:42.802Z,1.50
2018-12-02T06:01:42.787Z,1.50
2018-12-02T06:02:42.759Z,1.70
2018-12-02T06:03:42.735Z,1.60
2018-12-02T06:04:42.713Z,1.60
2018-12-02T06:05:42.695Z,1.60
2018-12-02T06:06:42.674Z,1.60
2018-12-02T06:07:42.646Z,1.50
2018-12-02T06:08:42.623Z,1.60
2018-12-02T06:09:42.601Z,1.70
2018-12-02T06:10:42.587Z,1.50
2018-12-02T06:11:43.897Z,1.60
2018-12-02T06:12:42.538Z,1.50
2018-12-02T06:13:42.511Z,1.50
2018-12-02T06:14:42.487Z,1.80
2018-12-02T06:15:42.465Z,1.70
2018-12-02T06:16:42.444Z,1.80
2018-12-02T06:17:42.421Z,1.60
2018-12-02T06:18:42.400Z,1.70
2018-12-02T06:19:42.379Z,1.60
2018-12-02T06:20:42.361Z,1.60
2018-12-02T06:21:42.332Z,1.60
2018-12-02T06:22:42.310Z,1.70
2018-12-02T06:23:42.286Z,1.70
2018-12-02T06:24:42.264Z,1.60
2018-12-02T06:25:46.486Z,1.70
2018-12-02T06:26:42.220Z,1.70
2018-12-02T06:27:42.204Z,1.70
2018-12-02T06:28:42.175Z,1.80
2018-12-02T06:29:42.154Z,1.60
2018-12-02T06:30:42.134Z,1.60
2018-12-02T06:31:42.107Z,1.60
2018-12-02T06:32:42.085Z,1.70
2018-12-02T06:33:42.069Z,1.60
2018-12-02T06:34:42.088Z,1.60
2018-12-02T06:35:42.020Z,1.60
2018-12-02T06:36:42.006Z,1.60
2018-12-02T06:37:41.977Z,1.50
2018-12-02T06:38:41.951Z,1.50
2018-12-02T06:39:41.931Z,1.60
2018-12-02T06:40:41.910Z,1.80
2018-12-02T06:41:41.886Z,1.40
2018-12-02T06:42:41.870Z,1.50
2018-12-02T06:43:41.841Z,1.60
2018-12-02T06:44:41.818Z,1.60
2018-12-02T06:45:41.796Z,1.40
2018-12-02T06:46:41.773Z,1.40
2018-12-02T06:47:41.761Z,1.30
2018-12-02T06:48:41.775Z,1.50
2018-12-02T06:49:41.706Z,1.60
2018-12-02T06:50:41.685Z,1.60
2018-12-02T06:51:41.665Z,1.20
2018-12-02T06:52:41.639Z,1.40
2018-12-02T06:53:41.618Z,1.70
2018-12-02T06:54:41.602Z,1.90
2018-12-02T06:55:41.575Z,1.50
2018-12-02T06:56:41.590Z,1.20
2018-12-02T06:57:41.529Z,1.30
2018-12-02T06:58:41.508Z,1.40
2018-12-02T06:59:41.493Z,1.20
2018-12-02T07:00:41.462Z,1.20
2018-12-02T07:01:41.440Z,1.40
2018-12-02T07:02:41.427Z,1.30
2018-12-02T07:03:41.402Z,1.30
2018-12-02T07:04:41.372Z,1.10
2018-12-02T07:05:41.352Z,1.30
2018-12-02T07:06:41.329Z,1.10
2018-12-02T07:07:41.307Z,1.20
2018-12-02T07:08:41.284Z,1.30
2018-12-02T07:09:41.259Z,1.20
2018-12-02T07:10:41.248Z,1.30
2018-12-02T07:11:41.217Z,1.20
2018-12-02T07:12:41.195Z,1.30
2018-12-02T07:13:41.176Z,1.30
2018-12-02T07:14:41.154Z,1.10
2018-12-02T07:15:41.128Z,1.40
2018-12-02T07:16:41.108Z,1.40
2018-12-02T07:17:41.243Z,1.50
2018-12-02T07:18:41.062Z,1.30
2018-12-02T07:19:41.040Z,1.40
2018-12-02T07:20:41.016Z,1.50
2018-12-02T07:21:40.999Z,1.40
2018-12-02T07:22:40.973Z,1.40
2018-12-02T07:23:40.949Z,1.30
2018-12-02T07:24:40.930Z,1.40
2018-12-02T07:25:40.907Z,1.50
2018-12-02T07:26:40.886Z,1.60
2018-12-02T07:27:40.862Z,1.60
2018-12-02T07:28:40.841Z,1.60
2018-12-02T07:29:40.817Z,1.60
2018-12-02T07:30:40.794Z,1.70
2018-12-02T07:31:40.778Z,1.70
2018-12-02T07:32:40.751Z,1.70
2018-12-02T07:33:40.736Z,1.50
2018-12-02T07:34:40.708Z,1.40
2018-12-02T07:35:40.684Z,1.50
2018-12-02T07:36:40.671Z,1.60
2018-12-02T07:37:40.639Z,1.50
2018-12-02T07:38:40.626Z,1.70
2018-12-02T07:39:40.595Z,1.50
2018-12-02T07:40:40.572Z,1.50
2018-12-02T07:41:40.550Z,1.70
2018-12-02T07:42:40.539Z,1.60
2018-12-02T07:43:40.510Z,1.50
2018-12-02T07:44:40.483Z,1.50
2018-12-02T07:45:40.473Z,1.80
2018-12-02T07:46:40.449Z,2.20
2018-12-02T07:47:40.419Z,2.20
2018-12-02T07:48:40.397Z,2.10
2018-12-02T07:49:40.377Z,1.80
2018-12-02T07:50:40.355Z,2.00
2018-12-02T07:51:40.328Z,2.10
2018-12-02T07:52:40.312Z,2.10
2018-12-02T07:53:40.290Z,2.80
2018-12-02T07:54:40.262Z,2.60
2018-12-02T07:55:40.251Z,3.10
2018-12-02T07:56:40.217Z,3.10
2018-12-02T07:57:40.197Z,3.20
2018-12-02T07:58:40.185Z,3.60
2018-12-02T07:59:40.151Z,3.40
2018-12-02T08:00:40.128Z,4.00
2018-12-02T08:01:40.114Z,3.80
2018-12-02T08:02:40.085Z,4.00
2018-12-02T08:03:40.061Z,4.40
2018-12-02T08:04:40.041Z,4.20
2018-12-02T08:05:40.018Z,4.30
2018-12-02T08:06:40.004Z,4.40
2018-12-02T08:07:39.972Z,4.90
2018-12-02T08:08:39.951Z,4.80
2018-12-02T08:09:39.928Z,4.80
2018-12-02T08:10:39.905Z,4.80
2018-12-02T08:11:39.891Z,4.60
2018-12-02T08:12:39.861Z,5.10
2018-12-02T08:13:39.838Z,4.60
2018-12-02T08:14:39.816Z,4.90
2018-12-02T08:15:39.793Z,5.10
2018-12-02T08:16:39.772Z,4.70
2018-12-02T08:17:39.749Z,4.40
2018-12-02T08:18:39.728Z,4.50
2018-12-02T08:19:39.705Z,4.80
2018-12-02T08:20:39.683Z,4.60
2018-12-02T08:21:39.670Z,4.80
2018-12-02T08:22:39.648Z,4.70
2018-12-02T08:23:39.615Z,4.60
2018-12-02T08:24:39.592Z,5.20
2018-12-02T08:25:39.571Z,4.80
2018-12-02T08:26:39.552Z,5.20
2018-12-02T08:27:39.525Z,5.00
2018-12-02T08:28:39.510Z,5.10
2018-12-02T08:29:39.483Z,4.70
2018-12-02T08:30:39.461Z,5.60
2018-12-02T08:31:39.436Z,5.30
2018-12-02T08:32:39.414Z,5.10
2018-12-02T08:33:39.392Z,5.30
2018-12-02T08:34:39.382Z,5.60
2018-12-02T08:35:39.347Z,5.40
2018-12-02T08:36:39.333Z,5.30
2018-12-02T08:37:39.305Z,5.70
2018-12-02T08:38:39.291Z,5.10
2018-12-02T08:39:40.038Z,5.00
2018-12-02T08:40:39.237Z,5.20
2018-12-02T08:41:39.224Z,5.40
2018-12-02T08:42:39.191Z,5.30
2018-12-02T08:43:39.175Z,5.30
2018-12-02T08:44:39.148Z,5.20
2018-12-02T08:45:39.126Z,5.50
2018-12-02T08:46:39.104Z,5.20
2018-12-02T08:47:39.088Z,5.80
2018-12-02T08:48:39.058Z,5.40
2018-12-02T08:49:39.044Z,5.50
2018-12-02T08:50:39.015Z,5.40
2018-12-02T08:51:39.012Z,5.30
2018-12-02T08:52:38.978Z,5.10
2018-12-02T08:53:38.954Z,4.80
2018-12-02T08:54:38.923Z,5.10
2018-12-02T08:55:38.908Z,5.10
2018-12-02T08:56:38.889Z,5.20
2018-12-02T08:57:38.858Z,5.00
2018-12-02T08:58:38.837Z,5.40
2018-12-02T08:59:38.813Z,4.90
2018-12-02T09:00:38.809Z,5.00
2018-12-02T09:01:38.769Z,4.80
2018-12-02T09:02:38.760Z,4.30
2018-12-02T09:03:38.727Z,4.90
2018-12-02T09:04:38.704Z,4.90
2018-12-02T09:05:38.683Z,5.00
2018-12-02T09:06:38.661Z,4.30
2018-12-02T09:07:38.637Z,4.40
2018-12-02T09:08:38.615Z,4.60
2018-12-02T09:09:38.593Z,4.40
2018-12-02T09:10:38.571Z,4.60
2018-12-02T09:11:38.548Z,4.60
2018-12-02T09:12:38.535Z,4.80
2018-12-02T09:13:38.507Z,4.60
2018-12-02T09:14:38.490Z,5.10
2018-12-02T09:15:38.460Z,4.50
2018-12-02T09:16:38.439Z,4.70
2018-12-02T09:17:38.422Z,4.80
2018-12-02T09:18:38.415Z,4.80
2018-12-02T09:19:38.373Z,5.30
2018-12-02T09:20:38.357Z,5.50
2018-12-02T09:21:38.328Z,6.80
2018-12-02T09:22:38.305Z,5.80
2018-12-02T09:23:38.284Z,8.10
2018-12-02T09:24:38.269Z,6.00
2018-12-02T09:25:38.249Z,6.30
2018-12-02T09:26:38.227Z,6.00
2018-12-02T09:27:38.203Z,5.10
2018-12-02T09:28:38.177Z,5.70
2018-12-02T09:29:38.164Z,5.60
2018-12-02T09:30:38.135Z,5.90
2018-12-02T09:31:38.118Z,5.80
2018-12-02T09:32:38.199Z,6.10
2018-12-02T09:33:38.065Z,4.80
2018-12-02T09:34:38.053Z,5.70
2018-12-02T09:35:38.024Z,4.70
2018-12-02T09:36:38.007Z,5.20
2018-12-02T09:37:37.985Z,4.60
2018-12-02T09:38:37.955Z,5.00
2018-12-02T09:39:37.935Z,4.60
2018-12-02T09:40:37.912Z,4.20
2018-12-02T09:41:37.888Z,4.30
2018-12-02T09:42:37.869Z,4.60
2018-12-02T09:43:37.846Z,4.60
2018-12-02T09:44:37.824Z,3.80
2018-12-02T09:45:37.807Z,3.80
2018-12-02T09:46:37.788Z,4.00
2018-12-02T09:47:37.757Z,4.10
2018-12-02T09:48:37.734Z,4.40
2018-12-02T09:49:37.711Z,4.40
2018-12-02T09:50:37.697Z,3.90
2018-12-02T09:51:37.677Z,4.10
2018-12-02T09:52:37.649Z,4.10
2018-12-02T09:53:37.626Z,4.60
2018-12-02T09:54:37.606Z,4.40
2018-12-02T09:55:37.591Z,4.60
2018-12-02T09:56:37.566Z,3.80
2018-12-02T09:57:37.544Z,4.40
2018-12-02T09:58:37.524Z,4.50
2018-12-02T09:59:37.499Z,4.70
2018-12-02T10:00:37.482Z,5.10
2018-12-02T10:01:37.451Z,4.90
2018-12-02T10:02:37.438Z,5.20
2018-12-02T10:03:37.410Z,5.20
2018-12-02T10:04:37.390Z,5.20
2018-12-02T10:05:37.371Z,5.70
2018-12-02T10:06:37.346Z,5.50
2018-12-02T10:07:37.322Z,6.00
2018-12-02T10:08:37.299Z,5.70
2018-12-02T10:09:37.283Z,6.10
2018-12-02T10:10:37.256Z,6.40
2018-12-02T10:11:37.246Z,6.50
2018-12-02T10:12:37.219Z,6.80
2018-12-02T10:13:37.191Z,6.90
2018-12-02T10:14:37.184Z,7.20
2018-12-02T10:15:37.196Z,7.70
2018-12-02T10:16:37.128Z,7.40
2018-12-02T10:17:37.110Z,7.20
2018-12-02T10:18:37.096Z,7.80
2018-12-02T10:19:37.064Z,7.50
2018-12-02T10:20:37.051Z,7.40
2018-12-02T10:21:37.065Z,7.50
2018-12-02T10:22:37.001Z,11.00
2018-12-02T10:23:36.981Z,13.30
2018-12-02T10:24:36.955Z,10.00
2018-12-02T10:25:37.034Z,8.40
2018-12-02T10:26:36.912Z,8.20
2018-12-02T10:27:36.900Z,8.50
2018-12-02T10:28:36.875Z,7.60
2018-12-02T10:29:36.856Z,7.90
2018-12-02T10:30:36.829Z,7.80
2018-12-02T10:31:36.814Z,7.70
2018-12-02T10:32:36.797Z,7.50
2018-12-02T10:33:36.764Z,7.70
2018-12-02T10:34:36.745Z,7.50
2018-12-02T10:35:36.725Z,7.50
2018-12-02T10:36:36.698Z,7.80
2018-12-02T10:37:36.684Z,7.90
2018-12-02T10:38:36.664Z,8.00
2018-12-02T10:39:36.634Z,7.60
2018-12-02T10:40:36.613Z,7.40
2018-12-02T10:41:36.594Z,6.90
2018-12-02T10:42:36.574Z,6.60
2018-12-02T10:43:36.547Z,6.70
2018-12-02T10:44:36.531Z,7.20
2018-12-02T10:45:36.523Z,7.10
2018-12-02T10:46:36.495Z,7.20
2018-12-02T10:47:36.474Z,6.70
2018-12-02T10:48:36.437Z,7.10
2018-12-02T10:49:36.422Z,6.10
2018-12-02T10:50:36.401Z,6.70
2018-12-02T10:51:36.389Z,6.70
2018-12-02T10:52:36.363Z,6.10
2018-12-02T10:53:36.346Z,8.00
2018-12-02T10:54:36.317Z,6.50
2018-12-02T10:55:36.296Z,6.50
2018-12-02T10:56:36.275Z,6.00
2018-12-02T10:57:36.255Z,6.30
2018-12-02T10:58:36.234Z,6.40
2018-12-02T10:59:36.212Z,6.60
2018-12-02T11:00:36.195Z,6.90
2018-12-02T11:01:36.168Z,7.20
2018-12-02T11:02:36.156Z,7.30
2018-12-02T11:03:36.134Z,7.30
2018-12-02T11:04:36.113Z,7.60
2018-12-02T11:05:36.093Z,7.60
2018-12-02T11:06:36.402Z,7.70
2018-12-02T11:07:36.049Z,7.80
2018-12-02T11:08:36.022Z,8.00
2018-12-02T11:09:36.001Z,8.30
2018-12-02T11:10:36.004Z,7.80
2018-12-02T11:11:36.112Z,8.30
2018-12-02T11:12:35.950Z,7.80
2018-12-02T11:13:35.919Z,8.20
2018-12-02T11:14:35.897Z,7.80
2018-12-02T11:15:35.903Z,7.70
2018-12-02T11:16:35.854Z,7.90
2018-12-02T11:17:35.842Z,7.70
2018-12-02T11:18:35.817Z,7.20
2018-12-02T11:19:35.795Z,8.00
2018-12-02T11:20:35.769Z,6.80
2018-12-02T11:21:35.769Z,7.50
2018-12-02T11:22:35.734Z,7.40
2018-12-02T11:23:35.720Z,7.20
2018-12-02T11:24:35.692Z,6.80
2018-12-02T11:25:35.675Z,6.50
2018-12-02T11:26:35.670Z,7.40
2018-12-02T11:27:35.634Z,7.00
2018-12-02T11:28:35.611Z,6.40
2018-12-02T11:29:35.598Z,6.80
2018-12-02T11:30:35.570Z,7.10
2018-12-02T11:31:35.574Z,7.00
2018-12-02T11:32:35.526Z,7.10
2018-12-02T11:33:35.504Z,7.00
2018-12-02T11:34:35.486Z,7.40
2018-12-02T11:35:35.468Z,6.70
2018-12-02T11:36:35.442Z,7.20
2018-12-02T11:37:35.422Z,6.90
2018-12-02T11:38:35.457Z,7.30
2018-12-02T11:39:35.391Z,7.00
2018-12-02T11:40:35.357Z,7.40
2018-12-02T11:41:35.347Z,7.10
2018-12-02T11:42:35.324Z,7.30
2018-12-02T11:44:35.282Z,7.60
2018-12-02T11:45:35.262Z,7.10
2018-12-02T11:46:35.232Z,7.80
2018-12-02T11:47:35.217Z,7.40
2018-12-02T11:48:35.191Z,7.40
2018-12-02T11:49:35.184Z,7.80
2018-12-02T11:50:35.167Z,7.50
2018-12-02T11:51:35.135Z,7.80
2018-12-02T11:52:35.110Z,8.00
2018-12-02T11:53:35.097Z,8.20
2018-12-02T11:54:35.108Z,8.20
2018-12-02T11:55:35.050Z,8.60
2018-12-02T11:56:35.035Z,7.70
2018-12-02T11:57:35.011Z,7.70
2018-12-02T11:58:35.022Z,7.50
2018-12-02T11:59:34.979Z,7.80
2018-12-02T12:00:34.960Z,7.90
2018-12-02T12:01:34.932Z,7.80
2018-12-02T12:02:34.907Z,7.50
2018-12-02T12:03:34.891Z,7.40
2018-12-02T12:04:34.875Z,7.30
2018-12-02T12:05:34.842Z,7.40
2018-12-02T12:06:34.829Z,7.40
2018-12-02T12:07:34.803Z,7.70
2018-12-02T12:08:34.785Z,7.30
2018-12-02T12:09:34.883Z,8.20
2018-12-02T12:10:34.753Z,7.30
2018-12-02T12:11:34.723Z,7.80
2018-12-02T12:12:34.697Z,7.40
2018-12-02T12:13:34.678Z,7.60
2018-12-02T12:14:34.656Z,9.80
2018-12-02T12:15:34.643Z,8.40
2018-12-02T12:16:34.616Z,7.80
2018-12-02T12:17:34.597Z,8.10
2018-12-02T12:18:34.589Z,7.70
2018-12-02T12:19:34.562Z,7.50
2018-12-02T12:20:34.542Z,7.40
2018-12-02T12:21:34.524Z,7.80
2018-12-02T12:22:34.493Z,8.00
2018-12-02T12:23:34.478Z,7.90
2018-12-02T12:24:34.472Z,8.10
2018-12-02T12:25:34.438Z,8.00
2018-12-02T12:26:34.420Z,8.00
2018-12-02T12:27:34.395Z,8.80
2018-12-02T12:28:34.376Z,8.40
2018-12-02T12:29:34.351Z,8.90
2018-12-02T12:30:34.330Z,8.70
2018-12-02T12:31:34.411Z,9.00
2018-12-02T12:32:34.310Z,9.20
2018-12-02T12:33:34.268Z,8.90
2018-12-02T12:34:34.255Z,9.60
2018-12-02T12:35:34.242Z,8.70
2018-12-02T12:36:34.206Z,8.70
2018-12-02T12:37:34.194Z,8.90
2018-12-02T12:38:34.174Z,8.60
2018-12-02T12:39:34.306Z,8.60
2018-12-02T12:40:34.134Z,9.00
2018-12-02T12:41:34.106Z,9.10
2018-12-02T12:42:34.102Z,8.60
2018-12-02T12:43:34.065Z,9.00
2018-12-02T12:44:34.065Z,9.00
2018-12-02T12:45:34.031Z,9.60
2018-12-02T12:46:34.046Z,8.90
2018-12-02T12:47:33.982Z,8.60
2018-12-02T12:48:33.962Z,8.80
2018-12-02T12:49:33.951Z,8.40
2018-12-02T12:50:33.924Z,8.50
2018-12-02T12:51:39.736Z,8.70
2018-12-02T12:52:33.887Z,8.60
2018-12-02T12:53:33.861Z,8.50
2018-12-02T12:54:33.847Z,8.10
2018-12-02T12:55:33.824Z,8.10
2018-12-02T12:56:33.805Z,8.70
2018-12-02T12:57:33.781Z,8.70
2018-12-02T12:58:33.766Z,9.00
2018-12-02T12:59:33.750Z,8.50
2018-12-02T13:00:33.720Z,8.60
2018-12-02T13:01:33.724Z,8.80
2018-12-02T13:02:33.684Z,8.00
2018-12-02T13:03:33.663Z,8.40
2018-12-02T13:04:33.644Z,9.20
2018-12-02T13:05:33.622Z,8.70
2018-12-02T13:06:33.612Z,8.00
2018-12-02T13:07:33.583Z,7.90
2018-12-02T13:08:33.562Z,7.70
2018-12-02T13:09:33.544Z,7.70
2018-12-02T13:10:33.538Z,7.70
2018-12-02T13:11:33.516Z,8.00
2018-12-02T13:12:33.495Z,7.60
2018-12-02T13:13:33.479Z,7.40
2018-12-02T13:14:33.451Z,7.20
2018-12-02T13:15:33.432Z,7.80
2018-12-02T13:16:33.404Z,7.40
2018-12-02T13:17:33.396Z,7.50
2018-12-02T13:18:33.376Z,7.10
2018-12-02T13:19:33.359Z,7.50